Time;durP1;ratioP1;P1;durP2;ratioP2;P2;SDS_P1;SDS_P2;PMS_P1;PMS_P2;Temp;Humidity;BMP_temperature;BMP_pressure;BME280_temperature;BME280_humidity;BME280_pressure;Samples;Min_cycle;Max_cycle;Signal;HPM_P1;HPM_P2
2023/05/05 00:00:36;;;;;;;7.47;4.13;;;18.60;99.90;;;;;;7287502;19;20293;-80
2023/05/05 00:03:02;;;;;;;7.63;4.30;;;18.60;99.90;;;;;;7286940;19;20195;-80
2023/05/05 00:05:27;;;;;;;10.03;4.37;;;18.60;99.90;;;;;;7300544;19;20203;-79
2023/05/05 00:07:53;;;;;;;8.43;4.33;;;18.60;99.90;;;;;;7302934;19;20192;-80
2023/05/05 00:10:19;;;;;;;9.03;4.00;;;18.50;99.90;;;;;;7286328;19;21086;-80
2023/05/05 00:12:45;;;;;;;7.17;4.23;;;18.50;99.90;;;;;;7285771;19;20193;-80
2023/05/05 00:15:11;;;;;;;8.50;4.30;;;18.50;99.90;;;;;;7286938;19;20201;-80
2023/05/05 00:17:37;;;;;;;7.60;4.20;;;18.40;99.90;;;;;;7287172;19;20895;-80
2023/05/05 00:20:03;;;;;;;9.20;4.10;;;18.30;99.90;;;;;;7285344;19;20204;-79
2023/05/05 00:22:28;;;;;;;7.33;3.90;;;18.10;99.90;;;;;;7292162;19;20188;-79
2023/05/05 00:24:54;;;;;;;7.07;3.57;;;18.00;99.90;;;;;;7308691;19;20664;-80
2023/05/05 00:27:20;;;;;;;8.17;4.10;;;17.90;99.90;;;;;;7287023;19;20196;-80
2023/05/05 00:29:46;;;;;;;6.63;4.13;;;17.90;99.90;;;;;;7286426;19;20189;-80
2023/05/05 00:32:12;;;;;;;9.07;4.20;;;17.80;99.90;;;;;;7286284;19;20193;-80
2023/05/05 00:34:37;;;;;;;6.57;3.90;;;17.80;99.90;;;;;;7287435;19;20285;-80
2023/05/05 00:37:03;;;;;;;8.77;3.80;;;17.80;99.90;;;;;;7287038;19;20543;-79
2023/05/05 00:39:29;;;;;;;6.63;4.00;;;17.70;99.90;;;;;;7287940;19;20185;-79
2023/05/05 00:41:54;;;;;;;7.03;3.60;;;17.70;99.90;;;;;;7308958;19;20650;-80
2023/05/05 00:44:37;;;;;;;6.80;3.90;;;17.60;99.90;;;;;;7286550;19;20184;-80
2023/05/05 00:47:03;;;;;;;8.53;3.87;;;17.50;99.90;;;;;;7183963;19;2005050;-80
2023/05/05 00:49:29;;;;;;;6.17;3.70;;;17.50;99.90;;;;;;7287066;19;20185;-79
2023/05/05 00:51:55;;;;;;;7.70;4.00;;;17.40;99.90;;;;;;7307944;19;20272;-80
2023/05/05 00:54:21;;;;;;;10.93;4.23;;;17.30;99.90;;;;;;7283854;19;20188;-80
2023/05/05 00:56:49;;;;;;;9.20;4.87;;;17.40;99.90;;;;;;7286208;19;20715;-80
2023/05/05 00:59:16;;;;;;;7.30;4.20;;;17.30;99.90;;;;;;7285897;19;20193;-80
2023/05/05 01:01:42;;;;;;;9.27;4.33;;;17.20;99.90;;;;;;7285366;19;20201;-80
2023/05/05 01:04:08;;;;;;;7.70;4.40;;;17.10;99.90;;;;;;7283758;19;20284;-80
2023/05/05 01:06:52;;;;;;;10.30;5.17;;;17.00;99.90;;;;;;7286662;19;20193;-80
2023/05/05 01:09:35;;;;;;;9.80;4.40;;;17.00;99.90;;;;;;7286383;19;20192;-80
2023/05/05 01:12:25;;;;;;;9.77;4.57;;;17.00;99.90;;;;;;7264336;19;20622;-79
2023/05/05 01:15:17;;;;;;;12.30;5.10;;;16.90;99.90;;;;;;7285713;19;20191;-80
2023/05/05 01:17:55;;;;;;;12.93;5.07;;;16.80;99.90;;;;;;7184424;19;2004553;-80
2023/05/05 01:20:33;;;;;;;9.57;5.10;;;16.70;99.90;;;;;;7285539;19;20202;-80
2023/05/05 01:23:06;;;;;;;10.97;5.17;;;16.70;99.90;;;;;;7262421;19;20185;-80
2023/05/05 01:25:55;;;;;;;7.67;4.73;;;16.70;99.90;;;;;;7283617;19;20202;-79
2023/05/05 01:28:36;;;;;;;9.10;5.47;;;16.70;99.90;;;;;;7283779;19;20189;-80
2023/05/05 01:31:38;;;;;;;10.87;5.00;;;16.60;99.90;;;;;;7263232;19;20659;-80
2023/05/05 01:34:08;;;;;;;9.70;5.30;;;16.60;99.90;;;;;;7182708;19;2004564;-79
2023/05/05 01:36:43;;;;;;;7.87;4.63;;;16.50;99.90;;;;;;7286561;19;20192;-80
2023/05/05 01:39:14;;;;;;;9.67;5.30;;;16.20;99.90;;;;;;7285333;19;20192;-79
2023/05/05 01:41:50;;;;;;;9.57;5.43;;;16.10;99.90;;;;;;7283550;19;20218;-79
2023/05/05 01:44:18;;;;;;;8.40;5.40;;;16.10;99.90;;;;;;7283964;19;20195;-80
2023/05/05 01:46:46;;;;;;;10.47;5.13;;;16.10;99.90;;;;;;7285015;19;20261;-80
2023/05/05 01:49:14;;;;;;;8.47;5.40;;;16.10;99.90;;;;;;7284252;19;20189;-80
2023/05/05 01:51:41;;;;;;;10.37;5.70;;;16.10;99.90;;;;;;7283331;19;20188;-80
2023/05/05 01:54:08;;;;;;;11.37;5.37;;;16.20;99.90;;;;;;7284301;19;20181;-79
2023/05/05 01:56:36;;;;;;;11.30;6.00;;;16.10;99.90;;;;;;7284090;19;20611;-80
2023/05/05 01:59:03;;;;;;;8.63;5.67;;;16.10;99.90;;;;;;7283756;19;20197;-80
2023/05/05 02:01:30;;;;;;;12.67;6.20;;;16.10;99.90;;;;;;7289490;19;20197;-79
2023/05/05 02:03:57;;;;;;;10.97;5.80;;;16.10;99.90;;;;;;7306023;19;20277;-80
2023/05/05 02:06:25;;;;;;;10.17;6.07;;;16.00;99.90;;;;;;7284239;19;20604;-80
2023/05/05 02:08:52;;;;;;;11.20;6.20;;;15.90;99.90;;;;;;7282186;19;20676;-80
2023/05/05 02:11:20;;;;;;;8.60;5.57;;;15.90;99.90;;;;;;7282959;19;20624;-80
2023/05/05 02:13:48;;;;;;;11.77;6.30;;;15.80;99.90;;;;;;7284146;19;20185;-79
2023/05/05 02:16:14;;;;;;;12.77;5.57;;;15.80;99.90;;;;;;7284316;19;20180;-80
2023/05/05 02:18:41;;;;;;;10.43;6.10;;;15.90;99.90;;;;;;7283282;19;20188;-80
2023/05/05 02:21:08;;;;;;;10.47;6.00;;;15.90;99.90;;;;;;7283671;19;20678;-80
2023/05/05 02:23:35;;;;;;;11.40;6.67;;;15.90;99.90;;;;;;7283017;19;20600;-80
2023/05/05 02:26:06;;;;;;;9.10;5.63;;;15.90;99.90;;;;;;7282927;19;20193;-79
2023/05/05 02:28:46;;;;;;;13.80;6.53;;;15.80;99.90;;;;;;7282766;19;20182;-79
2023/05/05 02:31:14;;;;;;;14.27;5.80;;;15.90;99.90;;;;;;7283788;19;20220;-80
2023/05/05 02:33:41;;;;;;;8.37;5.20;;;15.70;99.90;;;;;;7282185;19;20538;-80
2023/05/05 02:36:22;;;;;;;12.60;5.93;;;15.50;99.90;;;;;;7283807;19;20196;-80
2023/05/05 02:39:00;;;;;;;10.60;6.10;;;15.30;99.90;;;;;;7290740;19;20263;-80
2023/05/05 02:41:30;;;;;;;11.97;6.50;;;15.30;99.90;;;;;;7288165;19;20652;-77
2023/05/05 02:43:59;;;;;;;11.87;6.53;;;15.30;99.90;;;;;;7304691;19;20209;-79
2023/05/05 02:46:27;;;;;;;10.37;6.50;;;15.30;99.90;;;;;;7311148;19;20177;-80
2023/05/05 02:48:53;;;;;;;10.73;6.73;;;15.30;99.90;;;;;;7289367;19;20192;-80
2023/05/05 02:51:19;;;;;;;11.03;7.07;;;15.30;99.90;;;;;;7288357;19;20227;-80
2023/05/05 02:53:45;;;;;;;13.10;8.60;;;15.20;99.90;;;;;;7289168;19;20191;-80
2023/05/05 02:56:46;;;;;;;14.23;8.70;;;15.20;99.90;;;;;;7288242;19;20189;-79
2023/05/05 02:59:18;;;;;;;12.13;8.50;;;15.40;99.90;;;;;;7185815;19;2004543;-80
2023/05/05 03:01:46;;;;;;;12.57;8.50;;;15.50;99.90;;;;;;7288899;19;20296;-80
2023/05/05 03:04:26;;;;;;;12.50;8.20;;;15.60;99.90;;;;;;7287680;19;20200;-79
2023/05/05 03:06:58;;;;;;;17.77;8.70;;;15.60;99.90;;;;;;7289846;19;20660;-80
2023/05/05 03:09:50;;;;;;;15.10;9.20;;;15.70;99.90;;;;;;7286975;19;20198;-80
2023/05/05 03:12:21;;;;;;;12.97;7.83;;;15.80;99.90;;;;;;7186627;19;2004951;-80
2023/05/05 03:14:58;;;;;;;13.73;7.93;;;15.80;99.90;;;;;;7289672;19;20208;-80
2023/05/05 03:17:28;;;;;;;13.63;8.27;;;15.90;99.90;;;;;;7287903;19;20204;-80
2023/05/05 03:19:54;;;;;;;13.77;8.27;;;16.00;99.90;;;;;;7288970;19;20233;-79
2023/05/05 03:22:20;;;;;;;13.27;7.90;;;16.00;99.90;;;;;;7288111;19;20253;-79
2023/05/05 03:24:50;;;;;;;12.43;7.77;;;16.00;99.90;;;;;;7288492;19;20196;-79
2023/05/05 03:27:18;;;;;;;13.40;7.67;;;16.00;99.90;;;;;;7288102;19;20198;-79
2023/05/05 03:29:44;;;;;;;16.83;7.97;;;16.00;99.90;;;;;;7287090;19;20695;-79
2023/05/05 03:32:13;;;;;;;11.67;7.83;;;15.90;99.90;;;;;;7287558;19;20183;-80
2023/05/05 03:34:40;;;;;;;12.87;7.80;;;15.80;99.90;;;;;;7287134;19;20189;-79
2023/05/05 03:37:06;;;;;;;14.10;7.63;;;15.70;99.90;;;;;;7286863;19;20193;-79
2023/05/05 03:39:32;;;;;;;11.60;7.33;;;15.70;99.90;;;;;;7288074;19;20189;-79
2023/05/05 03:41:58;;;;;;;15.33;8.13;;;15.70;99.90;;;;;;7301879;19;20187;-79
2023/05/05 03:44:28;;;;;;;13.47;7.43;;;15.60;99.90;;;;;;7305903;19;20192;-78
2023/05/05 03:46:54;;;;;;;13.77;7.47;;;15.60;99.90;;;;;;7301073;19;20188;-80
2023/05/05 03:49:19;;;;;;;14.70;8.50;;;15.60;99.90;;;;;;7288923;19;20204;-79
2023/05/05 03:51:47;;;;;;;15.20;8.23;;;15.60;99.90;;;;;;7286911;19;20189;-80
2023/05/05 03:54:13;;;;;;;13.13;7.70;;;15.60;99.90;;;;;;7288274;19;20901;-80
2023/05/05 03:56:40;;;;;;;14.73;7.67;;;15.40;99.90;;;;;;7287209;19;20189;-79
2023/05/05 03:59:06;;;;;;;13.93;7.90;;;15.30;99.90;;;;;;7285940;19;20184;-79
2023/05/05 04:01:34;;;;;;;13.60;7.90;;;15.30;99.90;;;;;;7288225;19;20539;-80
2023/05/05 04:04:00;;;;;;;14.37;7.83;;;15.30;99.90;;;;;;7287996;19;20196;-79
2023/05/05 04:06:26;;;;;;;15.53;9.03;;;15.20;99.90;;;;;;7308815;19;20204;-80
2023/05/05 04:08:53;;;;;;;16.20;8.17;;;15.20;99.90;;;;;;7286556;19;20185;-79
2023/05/05 04:11:20;;;;;;;14.30;8.40;;;15.20;99.90;;;;;;7287179;19;20198;-79
2023/05/05 04:13:47;;;;;;;12.70;8.43;;;15.10;99.90;;;;;;7286136;19;20189;-80
2023/05/05 04:16:13;;;;;;;15.53;8.67;;;15.10;99.90;;;;;;7287387;19;20223;-79
2023/05/05 04:18:39;;;;;;;14.60;9.10;;;15.20;99.90;;;;;;7287444;19;20252;-79
2023/05/05 04:21:05;;;;;;;15.57;8.63;;;15.30;99.90;;;;;;7286710;19;20665;-80
2023/05/05 04:23:31;;;;;;;12.20;7.20;;;15.30;99.90;;;;;;7288549;19;20592;-78
2023/05/05 04:25:57;;;;;;;16.13;8.73;;;15.30;99.90;;;;;;7309297;19;20200;-79
2023/05/05 04:28:24;;;;;;;14.60;8.37;;;15.40;99.90;;;;;;7288079;19;20189;-80
2023/05/05 04:30:50;;;;;;;15.47;8.27;;;15.60;99.90;;;;;;7285976;19;20233;-80
2023/05/05 04:33:16;;;;;;;16.50;8.43;;;15.50;99.90;;;;;;7287258;19;20188;-79
2023/05/05 04:35:42;;;;;;;20.03;7.97;;;15.60;99.90;;;;;;7287243;19;20193;-79
2023/05/05 04:38:08;;;;;;;15.60;8.00;;;15.90;99.90;;;;;;7286595;19;20196;-80
2023/05/05 04:40:39;;;;;;;14.63;7.97;;;16.20;99.90;;;;;;7284734;19;20722;-80
2023/05/05 04:43:06;;;;;;;13.73;7.33;;;16.50;99.90;;;;;;7284636;19;20298;-79
2023/05/05 04:45:32;;;;;;;12.53;7.83;;;16.60;99.90;;;;;;7286061;19;20195;-79
2023/05/05 04:47:59;;;;;;;15.13;7.93;;;16.50;99.90;;;;;;7306211;19;20185;-76
2023/05/05 04:50:24;;;;;;;17.80;8.20;;;16.40;99.90;;;;;;7302245;19;20694;-80
2023/05/05 04:52:50;;;;;;;14.97;7.67;;;16.50;99.90;;;;;;7284515;19;20249;-81
2023/05/05 04:55:16;;;;;;;15.60;8.00;;;16.60;99.90;;;;;;7285299;19;20200;-81
2023/05/05 04:57:42;;;;;;;15.70;8.73;;;16.80;99.90;;;;;;7285625;19;20200;-81
2023/05/05 05:00:08;;;;;;;13.63;8.57;;;17.10;99.90;;;;;;7282992;19;20192;-81
2023/05/05 05:02:34;;;;;;;14.37;8.57;;;17.20;99.90;;;;;;7286064;19;20201;-79
2023/05/05 05:05:00;;;;;;;17.43;8.60;;;17.40;99.90;;;;;;7286308;19;20191;-80
2023/05/05 05:07:26;;;;;;;15.57;8.73;;;17.60;99.90;;;;;;7307750;19;20601;-80
2023/05/05 05:09:51;;;;;;;18.17;8.77;;;17.90;99.90;;;;;;7284393;19;20196;-83
2023/05/05 05:12:17;;;;;;;15.60;7.87;;;18.50;99.90;;;;;;7283563;19;20252;-82
2023/05/05 05:14:43;;;;;;;14.57;7.80;;;19.10;99.90;;;;;;7286375;19;20193;-81
2023/05/05 05:17:09;;;;;;;14.33;8.13;;;19.80;99.90;;;;;;7285692;19;20204;-82
2023/05/05 05:19:35;;;;;;;13.63;7.40;;;20.90;99.90;;;;;;7284422;19;20656;-81
2023/05/05 05:22:01;;;;;;;14.90;7.67;;;21.10;99.90;;;;;;7285124;19;20290;-81
2023/05/05 05:24:28;;;;;;;13.90;7.90;;;20.70;99.90;;;;;;7303794;19;20193;-78
2023/05/05 05:26:54;;;;;;;16.07;7.27;;;20.20;99.90;;;;;;7298878;19;20190;-82
2023/05/05 05:29:20;;;;;;;13.00;7.40;;;19.90;99.90;;;;;;7285387;19;20227;-81
2023/05/05 05:31:48;;;;;;;13.33;7.30;;;19.60;99.90;;;;;;7283887;19;20196;-81
2023/05/05 05:34:14;;;;;;;12.93;7.00;;;19.30;99.90;;;;;;7281636;19;20219;-81
2023/05/05 05:36:41;;;;;;;13.67;7.10;;;19.10;99.90;;;;;;7285415;19;20199;-81
2023/05/05 05:39:06;;;;;;;13.30;6.43;;;18.90;99.90;;;;;;7284625;19;20560;-81
2023/05/05 05:41:32;;;;;;;12.63;7.40;;;18.70;99.90;;;;;;7284788;19;20188;-81
2023/05/05 05:43:58;;;;;;;11.87;7.03;;;18.70;99.90;;;;;;7304614;19;20191;-77
2023/05/05 05:46:24;;;;;;;13.13;7.40;;;18.60;99.90;;;;;;7299666;19;20177;-81
2023/05/05 05:48:51;;;;;;;15.30;7.13;;;18.50;99.90;;;;;;7285809;19;20618;-84
2023/05/05 05:51:17;;;;;;;12.60;7.07;;;18.40;99.90;;;;;;7284512;19;20199;-83
2023/05/05 05:53:43;;;;;;;13.17;7.20;;;18.50;99.90;;;;;;7284412;19;20188;-83
2023/05/05 05:56:09;;;;;;;13.83;6.90;;;18.60;99.90;;;;;;7284452;19;20189;-84
2023/05/05 05:58:35;;;;;;;12.60;7.20;;;18.80;99.90;;;;;;7285769;19;20193;-82
2023/05/05 06:01:02;;;;;;;16.13;6.80;;;18.90;99.90;;;;;;7284043;19;20605;-82
2023/05/05 06:03:29;;;;;;;13.97;7.10;;;19.20;99.90;;;;;;7300003;19;20222;-82
2023/05/05 06:05:55;;;;;;;13.53;6.60;;;19.40;99.90;;;;;;7297415;19;20194;-83
2023/05/05 06:08:21;;;;;;;13.00;6.80;;;19.50;99.90;;;;;;7282342;19;20577;-83
2023/05/05 06:10:51;;;;;;;11.47;6.40;;;19.50;99.90;;;;;;7284589;19;20184;-82
2023/05/05 06:13:18;;;;;;;14.17;6.47;;;19.30;99.90;;;;;;7291830;19;20192;-83
2023/05/05 06:15:48;;;;;;;13.37;6.47;;;19.40;99.90;;;;;;7289760;19;20195;-83
2023/05/05 06:18:15;;;;;;;13.50;6.97;;;19.50;99.90;;;;;;7291478;19;20195;-83
2023/05/05 06:20:42;;;;;;;14.40;6.80;;;19.60;99.90;;;;;;7290082;19;20192;-83
2023/05/05 06:23:08;;;;;;;14.27;6.93;;;19.90;99.90;;;;;;7290941;19;20260;-83
2023/05/05 06:25:38;;;;;;;13.83;6.27;;;20.10;99.90;;;;;;7290645;19;20185;-83
2023/05/05 06:28:04;;;;;;;14.27;6.60;;;20.40;99.90;;;;;;7291721;19;20264;-83
2023/05/05 06:30:30;;;;;;;11.33;6.03;;;20.60;99.90;;;;;;7297549;19;20255;-83
2023/05/05 06:32:55;;;;;;;10.97;6.23;;;20.80;99.90;;;;;;7315006;19;20192;-83
2023/05/05 06:35:21;;;;;;;13.07;6.47;;;21.00;99.90;;;;;;7290764;19;20189;-83
2023/05/05 06:37:47;;;;;;;11.57;6.00;;;21.10;99.90;;;;;;7289781;19;20613;-83
2023/05/05 06:40:13;;;;;;;10.07;5.87;;;21.00;99.90;;;;;;7290029;19;20198;-83
2023/05/05 06:42:40;;;;;;;12.53;5.97;;;21.00;99.90;;;;;;7288653;19;20219;-83
2023/05/05 06:45:08;;;;;;;13.93;6.17;;;21.00;99.90;;;;;;7292634;19;20673;-83
2023/05/05 06:47:34;;;;;;;14.53;6.83;;;21.00;99.90;;;;;;7311411;19;20284;-83
2023/05/05 06:50:00;;;;;;;11.93;5.87;;;21.10;99.90;;;;;;7401286;19;20146;-84
2023/05/05 06:52:26;;;;;;;13.33;6.23;;;21.20;99.90;;;;;;7402814;19;20150;-88
2023/05/05 06:54:52;;;;;;;15.93;5.83;;;21.00;99.90;;;;;;7311642;19;20195;-88
2023/05/05 06:57:17;;;;;;;11.23;5.40;;;21.10;99.90;;;;;;7290206;19;20207;-88
2023/05/05 06:59:43;;;;;;;10.33;4.80;;;21.40;99.90;;;;;;7289568;19;20205;-88
2023/05/05 07:02:09;;;;;;;11.53;4.63;;;21.90;99.90;;;;;;7290611;19;20659;-88
2023/05/05 07:04:35;;;;;;;10.97;4.73;;;22.10;99.90;;;;;;7291091;19;20216;-87
2023/05/05 07:07:01;;;;;;;10.33;4.73;;;22.20;99.90;;;;;;7291654;19;20201;-83
2023/05/05 07:09:26;;;;;;;9.27;4.40;;;22.30;99.90;;;;;;7312995;19;20540;-86
2023/05/05 07:11:52;;;;;;;7.33;4.40;;;22.60;99.90;;;;;;7287925;19;20275;-86
2023/05/05 07:14:18;;;;;;;8.60;4.37;;;22.90;99.90;;;;;;7289349;19;20191;-86
2023/05/05 07:16:44;;;;;;;12.00;4.73;;;23.00;99.90;;;;;;7290061;19;20187;-86
2023/05/05 07:19:11;;;;;;;10.07;4.53;;;22.80;99.90;;;;;;7289481;19;20208;-87
2023/05/05 07:21:38;;;;;;;10.93;4.23;;;22.70;99.90;;;;;;7288579;19;20199;-87
2023/05/05 07:24:04;;;;;;;9.97;4.60;;;22.90;99.90;;;;;;7290014;19;20192;-87
2023/05/05 07:26:31;;;;;;;9.30;4.00;;;23.10;99.90;;;;;;7294531;19;20216;-86
2023/05/05 07:28:57;;;;;;;9.40;4.30;;;23.30;99.90;;;;;;7313242;19;20187;-88
2023/05/05 07:31:24;;;;;;;11.97;4.43;;;23.20;99.90;;;;;;7289252;19;20189;-88
2023/05/05 07:33:50;;;;;;;11.87;4.87;;;23.10;99.90;;;;;;7289774;19;20618;-87
2023/05/05 07:36:19;;;;;;;10.83;5.27;;;23.00;99.90;;;;;;7289960;19;20625;-88
2023/05/05 07:38:45;;;;;;;10.10;5.60;;;22.90;99.90;;;;;;7289850;19;20635;-88
2023/05/05 07:41:11;;;;;;;10.10;5.17;;;22.80;99.90;;;;;;7289120;19;20195;-87
2023/05/05 07:43:40;;;;;;;11.50;6.50;;;22.60;99.90;;;;;;7289874;19;21934;-87
2023/05/05 07:46:06;;;;;;;13.07;6.17;;;22.30;99.90;;;;;;7287644;19;20189;-87
2023/05/05 07:48:32;;;;;;;11.13;6.13;;;22.20;99.90;;;;;;7288112;19;20660;-87
2023/05/05 07:50:58;;;;;;;15.57;7.20;;;22.00;99.90;;;;;;7311429;19;20184;-88
2023/05/05 07:53:23;;;;;;;17.67;7.57;;;21.90;99.90;;;;;;7288872;19;21376;-88
2023/05/05 07:55:49;;;;;;;14.07;7.83;;;21.60;99.90;;;;;;7290039;19;20194;-88
2023/05/05 07:58:15;;;;;;;15.63;8.03;;;21.60;99.90;;;;;;7286483;19;20196;-87
2023/05/05 08:00:42;;;;;;;15.37;7.73;;;21.50;99.90;;;;;;7288688;19;20207;-88
2023/05/05 08:03:08;;;;;;;16.47;8.33;;;21.40;99.90;;;;;;7288185;19;20191;-87
2023/05/05 08:05:34;;;;;;;15.47;7.97;;;21.50;99.90;;;;;;7286749;19;20189;-88
2023/05/05 08:08:00;;;;;;;14.20;8.47;;;21.60;99.90;;;;;;7295572;19;20181;-87
2023/05/05 08:10:26;;;;;;;19.43;9.20;;;21.50;99.90;;;;;;7310256;19;20967;-87
2023/05/05 08:12:53;;;;;;;15.33;9.00;;;21.40;99.90;;;;;;7288255;19;20207;-87
2023/05/05 08:15:19;;;;;;;17.07;9.73;;;21.50;99.90;;;;;;7287432;19;20257;-87
2023/05/05 08:17:51;;;;;;;16.47;9.90;;;21.50;99.90;;;;;;7286954;19;20188;-85
2023/05/05 08:20:19;;;;;;;16.97;8.80;;;21.50;99.90;;;;;;7286892;19;20185;-84
2023/05/05 08:22:45;;;;;;;16.60;9.37;;;21.50;99.90;;;;;;7287364;19;20185;-84
2023/05/05 08:25:11;;;;;;;15.60;9.10;;;21.30;99.90;;;;;;7287326;19;20647;-84
2023/05/05 08:27:38;;;;;;;17.90;9.60;;;21.30;99.90;;;;;;7287542;19;20185;-85
2023/05/05 08:30:07;;;;;;;14.03;8.93;;;21.30;99.90;;;;;;7286206;19;20204;-84
2023/05/05 08:32:32;;;;;;;14.10;9.00;;;21.20;99.90;;;;;;7286418;19;20208;-84
2023/05/05 08:35:01;;;;;;;14.87;8.37;;;21.20;99.90;;;;;;7306327;19;20181;-84
2023/05/05 08:37:27;;;;;;;12.47;7.73;;;21.10;99.90;;;;;;7287310;19;20191;-84
2023/05/05 08:39:53;;;;;;;12.93;7.87;;;21.00;99.90;;;;;;7284482;19;20731;-85
2023/05/05 08:42:18;;;;;;;15.80;8.40;;;21.00;99.90;;;;;;7285858;19;20188;-83
2023/05/05 08:44:44;;;;;;;14.53;8.43;;;20.90;99.90;;;;;;7285441;19;20647;-84
2023/05/05 08:47:11;;;;;;;15.10;8.47;;;21.00;99.90;;;;;;7284109;19;20194;-84
2023/05/05 08:49:43;;;;;;;14.90;8.37;;;20.80;99.90;;;;;;7285296;19;20187;-84
2023/05/05 08:52:12;;;;;;;14.03;7.53;;;20.90;99.90;;;;;;7284114;19;20584;-84
2023/05/05 08:54:44;;;;;;;15.27;8.17;;;20.90;99.90;;;;;;7285130;19;20175;-84
2023/05/05 08:57:14;;;;;;;14.10;7.90;;;21.00;99.90;;;;;;7285661;19;20252;-84
2023/05/05 08:59:42;;;;;;;14.10;7.90;;;20.70;99.90;;;;;;7284293;19;20191;-85
2023/05/05 09:02:09;;;;;;;12.30;7.70;;;20.60;99.90;;;;;;7284524;19;20192;-84
2023/05/05 09:04:35;;;;;;;13.73;7.73;;;20.60;99.90;;;;;;7284533;19;20196;-84
2023/05/05 09:07:02;;;;;;;12.67;6.77;;;20.30;99.90;;;;;;7285728;19;20188;-84
2023/05/05 09:09:29;;;;;;;13.73;7.20;;;20.40;99.90;;;;;;7308202;19;20212;-85
2023/05/05 09:11:56;;;;;;;14.80;7.97;;;20.40;99.90;;;;;;7285695;19;20185;-84
2023/05/05 09:14:22;;;;;;;14.93;7.10;;;20.40;99.90;;;;;;7285982;19;20533;-84
2023/05/05 09:16:48;;;;;;;14.30;7.03;;;20.40;99.90;;;;;;7286436;19;20189;-84
2023/05/05 09:19:14;;;;;;;16.83;6.57;;;20.30;99.90;;;;;;7285923;19;20191;-84
2023/05/05 09:21:49;;;;;;;12.23;5.50;;;20.40;99.90;;;;;;7284045;19;20200;-84
2023/05/05 09:24:15;;;;;;;13.73;5.50;;;20.40;99.90;;;;;;7284067;19;20188;-84
2023/05/05 09:26:42;;;;;;;15.50;5.70;;;20.40;99.90;;;;;;7284009;19;20189;-85
2023/05/05 09:29:08;;;;;;;12.27;5.27;;;20.60;99.90;;;;;;7285230;19;20679;-85
2023/05/05 09:31:36;;;;;;;15.50;5.50;;;20.80;99.90;;;;;;7283907;19;20214;-86
2023/05/05 09:34:13;;;;;;;15.20;4.50;;;20.90;99.90;;;;;;7283989;19;20659;-84
2023/05/05 09:36:46;;;;;;;12.77;4.67;;;21.10;99.90;;;;;;7285104;19;20221;-86
2023/05/05 09:39:13;;;;;;;11.20;4.03;;;21.30;99.90;;;;;;7283572;19;20188;-85
2023/05/05 09:41:41;;;;;;;9.77;3.87;;;21.10;99.90;;;;;;7284115;19;20226;-85
2023/05/05 09:44:07;;;;;;;11.43;3.77;;;21.10;99.90;;;;;;7283793;19;20216;-85
2023/05/05 09:46:33;;;;;;;10.73;3.80;;;21.00;99.90;;;;;;7281189;19;20184;-84
2023/05/05 09:49:17;;;;;;;10.33;4.07;;;21.00;99.90;;;;;;7306420;19;20536;-86
2023/05/05 09:51:46;;;;;;;10.90;3.70;;;20.80;99.90;;;;;;7181618;19;2004880;-85
2023/05/05 09:54:29;;;;;;;13.77;3.63;;;21.30;99.90;;;;;;7284943;19;20214;-85
2023/05/05 09:56:56;;;;;;;9.47;3.50;;;22.00;99.90;;;;;;7284140;19;20192;-85
2023/05/05 09:59:22;;;;;;;11.90;3.40;;;22.60;99.90;;;;;;7280785;19;20351;-85
2023/05/05 10:01:50;;;;;;;11.53;3.63;;;22.70;99.90;;;;;;7283200;19;20192;-87
2023/05/05 10:04:27;;;;;;;9.07;3.00;;;22.90;99.90;;;;;;7283857;19;20194;-86
2023/05/05 10:06:57;;;;;;;10.80;3.00;;;23.20;99.90;;;;;;7283836;19;20218;-86
2023/05/05 10:09:24;;;;;;;7.97;2.80;;;23.80;99.90;;;;;;7283751;19;20196;-85
2023/05/05 10:11:50;;;;;;;11.83;3.17;;;24.10;99.90;;;;;;7282369;19;22632;-85
2023/05/05 10:14:17;;;;;;;12.37;3.57;;;23.90;99.90;;;;;;7283812;19;20209;-85
2023/05/05 10:16:49;;;;;;;10.80;3.30;;;23.90;99.90;;;;;;7281803;19;20341;-86
2023/05/05 10:19:17;;;;;;;13.93;5.00;;;24.30;99.90;;;;;;7281922;19;20256;-86
2023/05/05 10:21:51;;;;;;;10.90;5.43;;;24.20;99.90;;;;;;7281687;19;20189;-82
2023/05/05 10:24:21;;;;;;;10.37;5.47;;;23.70;99.90;;;;;;7282134;19;20192;-82
2023/05/05 10:26:48;;;;;;;12.57;7.03;;;23.90;99.90;;;;;;7264879;19;20541;-82
2023/05/05 10:29:41;;;;;;;14.27;7.37;;;23.40;99.90;;;;;;7280938;19;20562;-82
2023/05/05 10:32:36;;;;;;;15.40;7.07;;;23.30;99.90;;;;;;7180322;19;2004752;-79
2023/05/05 10:35:03;;;;;;;15.23;7.87;;;23.30;99.90;;;;;;7259894;19;20191;-79
2023/05/05 10:37:29;;;;;;;16.63;8.47;;;23.10;99.90;;;;;;7303053;19;20716;-79
2023/05/05 10:39:56;;;;;;;18.10;8.20;;;22.60;99.90;;;;;;7283013;19;20656;-79
2023/05/05 10:42:23;;;;;;;15.43;8.43;;;22.40;99.90;;;;;;7281532;19;20222;-79
2023/05/05 10:44:49;;;;;;;15.10;7.50;;;22.20;99.90;;;;;;7281497;19;20518;-79
2023/05/05 10:47:17;;;;;;;14.90;7.20;;;21.80;99.90;;;;;;7281166;19;20184;-79
2023/05/05 10:50:06;;;;;;;12.73;7.20;;;21.40;99.90;;;;;;7281931;19;20193;-80
2023/05/05 10:52:41;;;;;;;13.07;6.77;;;21.40;99.90;;;;;;7259039;19;20670;-80
2023/05/05 10:55:16;;;;;;;17.47;7.70;;;21.20;99.90;;;;;;7280804;19;20196;-80
2023/05/05 10:57:45;;;;;;;15.50;7.37;;;20.90;99.90;;;;;;7283365;19;20191;-80
2023/05/05 11:00:36;;;;;;;14.97;8.23;;;20.80;99.90;;;;;;7286724;19;20196;-80
2023/05/05 11:03:17;;;;;;;13.77;7.77;;;20.70;99.90;;;;;;7267579;19;20207;-79
2023/05/05 11:08:31;;;;;;;14.20;6.20;;;20.90;99.90;;;;;;7283097;19;20698;-79
2023/05/05 11:10:57;;;;;;;13.17;5.70;;;21.00;99.90;;;;;;7310273;19;20316;-80
2023/05/05 11:13:24;;;;;;;14.23;5.10;;;21.00;99.90;;;;;;7287606;19;20204;-81
2023/05/05 11:15:52;;;;;;;12.87;5.00;;;21.00;99.90;;;;;;7287342;19;20183;-81
2023/05/05 11:18:35;;;;;;;11.23;3.97;;;21.40;99.90;;;;;;7285479;19;20648;-80
2023/05/05 11:21:02;;;;;;;12.33;3.60;;;21.80;99.90;;;;;;7280572;19;20215;-80
2023/05/05 11:23:28;;;;;;;16.03;3.90;;;22.10;99.90;;;;;;7308362;19;20217;-81
2023/05/05 11:25:56;;;;;;;13.93;3.53;;;23.30;99.90;;;;;;7287998;19;20677;-81
2023/05/05 11:28:30;;;;;;;10.40;2.97;;;23.70;99.90;;;;;;7286738;19;20193;-82
2023/05/05 11:30:56;;;;;;;9.97;2.80;;;23.50;99.90;;;;;;7286942;19;20181;-81
2023/05/05 11:33:32;;;;;;;8.80;2.63;;;23.20;99.90;;;;;;7285655;19;20189;-81
2023/05/05 11:36:00;;;;;;;10.07;2.77;;;23.20;99.90;;;;;;7286932;19;20264;-81
2023/05/05 11:38:38;;;;;;;11.10;3.00;;;23.20;99.90;;;;;;7289290;19;20206;-81
2023/05/05 11:41:20;;;;;;;8.20;2.80;;;23.50;99.90;;;;;;7265808;19;20200;-81
2023/05/05 11:43:45;;;;;;;7.53;2.00;;;24.70;99.90;;;;;;7286962;19;20260;-81
2023/05/05 11:46:12;;;;;;;8.45;2.00;;;25.90;99.90;;;;;;7286746;19;20196;-81
2023/05/05 11:48:48;;;;;;;8.40;1.90;;;25.70;99.90;;;;;;7288337;19;20653;-81
2023/05/05 11:51:18;;;;;;;7.07;1.60;;;26.20;99.90;;;;;;7287355;19;20660;-81
2023/05/05 11:53:45;;;;;;;6.25;1.83;;;26.60;99.90;;;;;;7287954;19;20188;-81
2023/05/05 11:56:17;;;;;;;5.68;1.45;;;25.50;99.90;;;;;;7286563;19;20603;-81
2023/05/05 11:58:47;;;;;;;6.25;2.03;;;25.80;99.90;;;;;;7286006;19;20527;-81
2023/05/05 12:01:14;;;;;;;8.40;2.03;;;25.60;99.90;;;;;;7286010;19;20196;-81
2023/05/05 12:03:40;;;;;;;10.50;3.00;;;25.70;99.90;;;;;;7286313;19;20188;-81
2023/05/05 12:06:07;;;;;;;10.02;2.15;;;25.50;99.90;;;;;;7285839;19;20195;-81
2023/05/05 12:08:40;;;;;;;8.45;2.30;;;25.20;99.90;;;;;;7287023;19;20184;-80
2023/05/05 12:11:07;;;;;;;7.18;2.13;;;25.30;99.90;;;;;;7285645;19;20546;-81
2023/05/05 12:13:33;;;;;;;8.30;2.05;;;25.30;99.90;;;;;;7285432;19;20188;-81
2023/05/05 12:16:09;;;;;;;7.88;1.70;;;24.90;99.90;;;;;;7308955;19;20744;-81
2023/05/05 12:18:35;;;;;;;8.95;2.90;;;24.50;99.90;;;;;;7184421;19;2004765;-81
2023/05/05 12:21:11;;;;;;;5.90;1.88;;;24.20;99.90;;;;;;7293845;19;20694;-80
2023/05/05 12:23:37;;;;;;;6.93;2.90;;;24.20;99.90;;;;;;7285856;19;20282;-81
2023/05/05 12:26:04;;;;;;;10.63;3.17;;;23.40;99.90;;;;;;7284774;19;20211;-81
2023/05/05 12:28:47;;;;;;;9.67;2.07;;;23.20;99.90;;;;;;7307749;19;20293;-81
2023/05/05 12:31:13;;;;;;;6.00;1.87;;;23.00;99.90;;;;;;7183480;19;2004606;-81
2023/05/05 12:33:39;;;;;;;9.60;2.30;;;23.00;99.90;;;;;;7285889;19;20553;-81
2023/05/05 12:36:07;;;;;;;8.37;3.40;;;22.90;99.90;;;;;;7284497;19;20193;-81
2023/05/05 12:38:34;;;;;;;8.63;3.80;;;22.30;99.90;;;;;;7286725;19;20598;-81
2023/05/05 12:41:01;;;;;;;9.20;3.90;;;22.10;99.90;;;;;;7308035;19;20298;-81
2023/05/05 12:43:28;;;;;;;9.27;3.50;;;22.30;99.90;;;;;;7286053;19;20188;-80
2023/05/05 12:46:10;;;;;;;6.03;1.93;;;22.70;99.90;;;;;;7284104;19;20192;-80
2023/05/05 12:48:38;;;;;;;6.47;1.40;;;22.50;99.90;;;;;;7182984;19;2004557;-81